Time;durP1;ratioP1;P1;durP2;ratioP2;P2;SDS_P1;SDS_P2;PMS_P1;PMS_P2;Temp;Humidity;BMP_temperature;BMP_pressure;BME280_temperature;BME280_humidity;BME280_pressure;Samples;Min_cycle;Max_cycle;Signal;HPM_P1;HPM_P2
2021/08/17 00:01:18;;;;;;;14.95;11.18;;;26.90;99.90;;;;;;5092298;28;20044;-44
2021/08/17 00:03:45;;;;;;;16.00;10.77;;;26.80;99.90;;;;;;5092525;28;20511;-44
2021/08/17 00:06:13;;;;;;;12.52;9.63;;;26.70;99.90;;;;;;5092224;28;20075;-44
2021/08/17 00:08:40;;;;;;;14.93;10.90;;;26.60;99.90;;;;;;5092047;28;20036;-45
2021/08/17 00:11:08;;;;;;;19.90;11.10;;;26.60;99.90;;;;;;5092716;28;20044;-44
2021/08/17 00:13:36;;;;;;;14.35;10.73;;;26.60;99.90;;;;;;5091436;28;20452;-46
2021/08/17 00:16:04;;;;;;;13.02;10.52;;;26.60;99.90;;;;;;5092141;28;20088;-45
2021/08/17 00:18:31;;;;;;;13.35;10.32;;;26.70;99.90;;;;;;5092371;28;20096;-45
2021/08/17 00:20:59;;;;;;;17.10;10.23;;;26.80;99.90;;;;;;5093375;28;20493;-44
2021/08/17 00:23:27;;;;;;;12.68;10.07;;;26.80;99.90;;;;;;5092218;28;20049;-44
2021/08/17 00:26:00;;;;;;;13.57;10.52;;;26.80;99.90;;;;;;5091361;28;20390;-45
2021/08/17 00:28:28;;;;;;;15.30;10.65;;;26.90;99.90;;;;;;5092887;28;20047;-46
2021/08/17 00:30:55;;;;;;;16.13;11.00;;;26.90;99.90;;;;;;5092104;28;20362;-44
2021/08/17 00:33:24;;;;;;;19.88;11.63;;;26.80;99.90;;;;;;5093109;28;20048;-45
2021/08/17 00:35:55;;;;;;;15.07;12.15;;;26.60;99.90;;;;;;5091913;28;20075;-44
2021/08/17 00:38:23;;;;;;;16.25;11.27;;;26.50;99.90;;;;;;5075508;28;20512;-44
2021/08/17 00:40:53;;;;;;;18.40;12.48;;;26.40;99.90;;;;;;5091085;28;20382;-44
2021/08/17 00:43:22;;;;;;;17.98;10.48;;;26.40;99.90;;;;;;5090951;28;20131;-47
2021/08/17 00:45:50;;;;;;;13.68;10.90;;;26.50;99.90;;;;;;5074852;28;20055;-44
2021/08/17 00:48:17;;;;;;;22.23;10.63;;;26.70;99.90;;;;;;5091782;28;20040;-46
2021/08/17 00:50:46;;;;;;;11.93;9.68;;;26.90;99.90;;;;;;5093305;28;20044;-44
2021/08/17 00:53:14;;;;;;;12.20;9.52;;;27.10;99.90;;;;;;5058537;28;20516;-44
2021/08/17 00:55:42;;;;;;;14.30;10.55;;;27.20;99.90;;;;;;5091630;28;20051;-45
2021/08/17 00:58:10;;;;;;;12.80;11.02;;;27.30;99.90;;;;;;5092131;28;20456;-44
2021/08/17 01:00:38;;;;;;;14.63;10.63;;;27.50;99.90;;;;;;5094604;28;20074;-44
2021/08/17 01:03:06;;;;;;;13.27;10.10;;;27.50;99.90;;;;;;5095229;28;20391;-45
2021/08/17 01:05:33;;;;;;;12.98;9.68;;;27.50;99.90;;;;;;5095776;28;20086;-45
2021/08/17 01:08:01;;;;;;;13.18;9.30;;;27.60;99.90;;;;;;5095594;28;20410;-44
2021/08/17 01:10:29;;;;;;;11.75;9.45;;;27.70;99.90;;;;;;5062327;28;20536;-44
2021/08/17 01:12:56;;;;;;;13.45;9.35;;;27.80;99.90;;;;;;5094160;28;20059;-45
2021/08/17 01:15:24;;;;;;;12.98;9.75;;;27.90;99.90;;;;;;5096069;28;20097;-44
2021/08/17 01:17:52;;;;;;;11.00;8.82;;;27.80;99.90;;;;;;5095047;28;20405;-44
2021/08/17 01:20:20;;;;;;;13.63;9.57;;;27.80;99.90;;;;;;5078376;28;20051;-44
2021/08/17 01:22:49;;;;;;;11.07;8.82;;;27.70;99.90;;;;;;5078529;28;20138;-44
2021/08/17 01:25:17;;;;;;;14.02;10.02;;;27.70;99.90;;;;;;5078228;28;20044;-44
2021/08/17 01:27:45;;;;;;;13.93;10.38;;;27.70;99.90;;;;;;5094495;28;20047;-45
2021/08/17 01:30:15;;;;;;;12.13;9.48;;;27.60;99.90;;;;;;5077435;28;20040;-44
2021/08/17 01:32:45;;;;;;;16.58;13.05;;;27.50;99.90;;;;;;5095074;28;20036;-44
2021/08/17 01:35:14;;;;;;;15.77;10.65;;;27.20;99.90;;;;;;5078226;28;20067;-44
2021/08/17 01:37:42;;;;;;;15.95;11.23;;;27.20;99.90;;;;;;5095288;28;20044;-44
2021/08/17 01:40:12;;;;;;;14.77;12.27;;;27.00;99.90;;;;;;5077961;28;20139;-44
2021/08/17 01:42:45;;;;;;;16.75;11.57;;;26.90;99.90;;;;;;5095612;28;20044;-44
2021/08/17 01:45:13;;;;;;;15.63;11.73;;;26.80;99.90;;;;;;5095325;28;20048;-44
2021/08/17 01:47:41;;;;;;;15.90;13.40;;;26.60;99.90;;;;;;5094548;28;20044;-45
2021/08/17 01:50:11;;;;;;;17.58;12.38;;;26.40;99.90;;;;;;5094629;28;20090;-44
2021/08/17 01:52:38;;;;;;;15.82;12.02;;;26.40;99.90;;;;;;5094653;28;20048;-44
2021/08/17 01:55:07;;;;;;;13.23;11.82;;;26.50;99.90;;;;;;5094324;28;20040;-44
2021/08/17 01:57:39;;;;;;;12.20;10.88;;;26.60;99.90;;;;;;5096095;28;20044;-44
2021/08/17 02:00:08;;;;;;;15.63;13.05;;;26.60;99.90;;;;;;5093427;28;20047;-45
2021/08/17 02:02:37;;;;;;;13.60;11.32;;;26.60;99.90;;;;;;5095444;28;20051;-44
2021/08/17 02:05:05;;;;;;;14.85;11.77;;;26.60;99.90;;;;;;5077640;28;20056;-45
2021/08/17 02:07:33;;;;;;;14.57;11.25;;;26.70;99.90;;;;;;5094348;28;20505;-44
2021/08/17 02:10:01;;;;;;;15.88;12.07;;;26.70;99.90;;;;;;5077623;28;20467;-45
2021/08/17 02:12:29;;;;;;;14.57;12.10;;;26.60;99.90;;;;;;5094334;28;20039;-44
2021/08/17 02:14:57;;;;;;;16.42;12.52;;;26.40;99.90;;;;;;5076725;28;20080;-44
2021/08/17 02:17:24;;;;;;;15.50;10.90;;;26.40;99.90;;;;;;5094705;28;20052;-44
2021/08/17 02:19:52;;;;;;;15.32;10.82;;;26.40;99.90;;;;;;5093997;28;20115;-44
2021/08/17 02:22:19;;;;;;;15.93;11.52;;;26.40;99.90;;;;;;5093913;28;20040;-44
2021/08/17 02:24:47;;;;;;;12.25;10.73;;;26.20;99.90;;;;;;5094437;28;20397;-44
2021/08/17 02:27:14;;;;;;;13.10;10.73;;;26.20;99.90;;;;;;5093927;28;20072;-44
2021/08/17 02:29:42;;;;;;;15.95;11.52;;;26.30;99.90;;;;;;5093582;28;20044;-46
2021/08/17 02:32:10;;;;;;;16.65;11.82;;;26.30;99.90;;;;;;5076157;28;20047;-44
2021/08/17 02:34:37;;;;;;;16.00;11.27;;;26.30;99.90;;;;;;5093340;28;20067;-44
2021/08/17 02:37:05;;;;;;;15.82;11.70;;;26.30;99.90;;;;;;5093457;28;20044;-45
2021/08/17 02:39:33;;;;;;;14.70;11.52;;;26.30;99.90;;;;;;5093967;28;20032;-44
2021/08/17 02:42:01;;;;;;;14.75;11.60;;;26.40;99.90;;;;;;5093607;28;20060;-44
2021/08/17 02:44:29;;;;;;;15.48;11.10;;;26.30;99.90;;;;;;5093759;28;20063;-44
2021/08/17 02:46:56;;;;;;;14.63;10.90;;;26.30;99.90;;;;;;5059053;28;20044;-46
2021/08/17 02:49:24;;;;;;;15.18;11.35;;;26.30;99.90;;;;;;5092979;28;20043;-44
2021/08/17 02:51:51;;;;;;;13.27;10.98;;;26.30;99.90;;;;;;5093700;28;20040;-44
2021/08/17 02:54:19;;;;;;;12.95;10.88;;;26.30;99.90;;;;;;5094776;28;20355;-44
2021/08/17 02:56:46;;;;;;;14.40;11.25;;;26.40;99.90;;;;;;5094741;28;20047;-44
2021/08/17 02:59:14;;;;;;;13.55;11.52;;;26.30;99.90;;;;;;5093307;28;20040;-44
2021/08/17 03:01:42;;;;;;;17.30;12.55;;;26.30;99.90;;;;;;5092483;28;20043;-44
2021/08/17 03:04:09;;;;;;;15.07;12.07;;;26.30;99.90;;;;;;5094095;28;20482;-44
2021/08/17 03:06:37;;;;;;;17.08;11.63;;;26.30;99.90;;;;;;5093084;28;20040;-44
2021/08/17 03:09:05;;;;;;;15.98;12.40;;;26.30;99.90;;;;;;5093072;28;20117;-45
2021/08/17 03:11:32;;;;;;;20.70;12.60;;;26.20;99.90;;;;;;5093151;28;20044;-44
2021/08/17 03:14:00;;;;;;;16.65;12.27;;;26.20;99.90;;;;;;5094557;28;20130;-45
2021/08/17 03:16:27;;;;;;;14.90;13.30;;;26.20;99.90;;;;;;5075900;28;20143;-44
2021/08/17 03:18:56;;;;;;;17.92;14.82;;;26.20;99.90;;;;;;5075345;28;20489;-44
2021/08/17 03:21:24;;;;;;;17.58;14.10;;;26.10;99.90;;;;;;5092513;28;20093;-45
2021/08/17 03:23:51;;;;;;;15.52;13.20;;;26.20;99.90;;;;;;5092405;28;20055;-44
2021/08/17 03:26:19;;;;;;;18.23;14.10;;;26.20;99.90;;;;;;5076252;28;20048;-44
2021/08/17 03:28:47;;;;;;;20.92;14.13;;;26.20;99.90;;;;;;5075997;28;20398;-44
2021/08/17 03:31:15;;;;;;;18.63;13.10;;;26.30;99.90;;;;;;5093018;28;20040;-44
2021/08/17 03:33:43;;;;;;;18.33;13.82;;;26.30;99.90;;;;;;5091978;28;20052;-44
2021/08/17 03:36:11;;;;;;;17.65;14.48;;;26.20;99.90;;;;;;5092078;28;20044;-45
2021/08/17 03:38:38;;;;;;;20.55;14.68;;;26.20;99.90;;;;;;5092546;28;20444;-44
2021/08/17 03:41:06;;;;;;;20.10;14.93;;;26.00;99.90;;;;;;5092513;28;20076;-44
2021/08/17 03:43:34;;;;;;;19.42;15.45;;;25.90;99.90;;;;;;5075718;28;20498;-44
2021/08/17 03:46:01;;;;;;;22.45;15.38;;;25.80;99.90;;;;;;5092817;28;20050;-44
2021/08/17 03:48:29;;;;;;;17.67;14.50;;;25.80;99.90;;;;;;5092419;28;20093;-44
2021/08/17 03:50:56;;;;;;;20.83;15.68;;;25.80;99.90;;;;;;5074995;28;20044;-47
2021/08/17 03:53:25;;;;;;;19.27;15.38;;;25.80;99.90;;;;;;5075439;28;20043;-44
2021/08/17 03:55:53;;;;;;;18.23;15.07;;;25.90;99.90;;;;;;5092164;28;20040;-44
2021/08/17 03:58:21;;;;;;;20.55;14.48;;;25.90;99.90;;;;;;5092640;28;20515;-44
2021/08/17 04:00:50;;;;;;;17.67;14.30;;;25.90;99.90;;;;;;5092442;28;20149;-44
2021/08/17 04:03:17;;;;;;;18.80;14.57;;;26.00;99.90;;;;;;5092385;28;20044;-45
2021/08/17 04:05:45;;;;;;;17.10;13.60;;;26.20;99.90;;;;;;5091505;28;20040;-45
2021/08/17 04:08:13;;;;;;;20.65;14.35;;;26.20;99.90;;;;;;5091690;28;20040;-44
2021/08/17 04:10:40;;;;;;;17.67;12.95;;;26.30;99.90;;;;;;5093239;28;20044;-44
2021/08/17 04:13:08;;;;;;;15.90;13.25;;;26.40;99.90;;;;;;5093288;28;20052;-44
2021/08/17 04:15:35;;;;;;;16.08;14.05;;;26.50;99.90;;;;;;5092208;28;20044;-44
2021/08/17 04:18:03;;;;;;;19.25;15.45;;;26.50;99.90;;;;;;5092409;28;20051;-44
2021/08/17 04:20:32;;;;;;;14.90;11.85;;;26.60;99.90;;;;;;5091200;28;20050;-44
2021/08/17 04:23:00;;;;;;;19.50;12.98;;;26.70;99.90;;;;;;5091513;28;20043;-44
2021/08/17 04:25:27;;;;;;;16.63;13.77;;;26.80;99.90;;;;;;5092049;28;20054;-44
2021/08/17 04:27:55;;;;;;;19.58;14.43;;;26.80;99.90;;;;;;5075385;28;20043;-44
2021/08/17 04:30:23;;;;;;;17.50;13.00;;;26.80;99.90;;;;;;5092133;28;20173;-44
2021/08/17 04:32:50;;;;;;;19.60;14.05;;;26.80;99.90;;;;;;5093346;28;20052;-44
2021/08/17 04:35:19;;;;;;;18.42;13.10;;;26.80;99.90;;;;;;5094251;28;20091;-44
2021/08/17 04:37:47;;;;;;;16.27;13.80;;;26.90;99.90;;;;;;5095301;28;20055;-44
2021/08/17 04:40:16;;;;;;;16.75;12.43;;;26.90;99.90;;;;;;5078992;28;20502;-45
2021/08/17 04:42:44;;;;;;;18.23;14.38;;;26.90;99.90;;;;;;5079211;28;20044;-44
2021/08/17 04:45:11;;;;;;;16.75;12.88;;;26.90;99.90;;;;;;5096150;28;20039;-44
2021/08/17 04:47:47;;;;;;;15.75;12.75;;;26.90;99.90;;;;;;5095999;28;20079;-44
2021/08/17 04:50:16;;;;;;;17.05;12.45;;;26.90;99.90;;;;;;5078822;28;20480;-46
2021/08/17 04:52:44;;;;;;;20.77;12.80;;;26.90;99.90;;;;;;5077879;28;20374;-49
2021/08/17 04:55:12;;;;;;;16.30;12.55;;;26.90;99.90;;;;;;5095414;28;20394;-44
2021/08/17 04:57:55;;;;;;;14.68;11.68;;;27.00;99.90;;;;;;5062119;28;20047;-44
2021/08/17 05:00:25;;;;;;;16.20;13.13;;;27.00;99.90;;;;;;5097066;28;20048;-47
2021/08/17 05:02:53;;;;;;;24.52;11.57;;;27.10;99.90;;;;;;5078944;28;20044;-44
2021/08/17 05:05:22;;;;;;;15.55;12.48;;;27.10;99.90;;;;;;5078890;28;20097;-44
2021/08/17 05:07:51;;;;;;;16.98;12.48;;;27.00;99.90;;;;;;5077726;28;20044;-44
2021/08/17 05:10:22;;;;;;;15.88;11.93;;;27.00;99.90;;;;;;5094768;28;20400;-44
2021/08/17 05:12:49;;;;;;;16.50;12.65;;;27.00;99.90;;;;;;5078260;28;20382;-44
2021/08/17 05:15:17;;;;;;;16.60;13.18;;;26.90;99.90;;;;;;5095277;28;20051;-44
2021/08/17 05:17:45;;;;;;;14.90;12.40;;;27.00;99.90;;;;;;5095583;28;20531;-44
2021/08/17 05:20:13;;;;;;;20.35;12.73;;;27.10;99.90;;;;;;5095491;28;20055;-44
2021/08/17 05:22:44;;;;;;;16.73;13.00;;;27.10;99.90;;;;;;5061552;28;20054;-44
2021/08/17 05:25:12;;;;;;;17.65;12.48;;;27.20;99.90;;;;;;5094378;28;20077;-44
2021/08/17 05:27:40;;;;;;;15.98;12.90;;;27.10;99.90;;;;;;5078042;28;20044;-44
2021/08/17 05:30:09;;;;;;;14.35;12.18;;;27.20;99.90;;;;;;5078265;28;20093;-44
2021/08/17 05:32:36;;;;;;;16.08;11.30;;;27.20;99.90;;;;;;5078431;28;20044;-45
2021/08/17 05:35:05;;;;;;;16.10;11.93;;;27.20;99.90;;;;;;5094969;28;20111;-45
2021/08/17 05:37:33;;;;;;;14.05;12.02;;;27.20;99.90;;;;;;5077839;28;20451;-45
2021/08/17 05:40:00;;;;;;;14.38;12.02;;;27.30;99.90;;;;;;5093931;28;20048;-44
2021/08/17 05:42:28;;;;;;;16.73;11.45;;;27.40;99.90;;;;;;5094493;28;20074;-45
2021/08/17 05:44:56;;;;;;;16.67;12.07;;;27.40;99.90;;;;;;5094381;28;20058;-44
2021/08/17 05:47:23;;;;;;;14.43;12.63;;;27.50;99.90;;;;;;5094891;28;20040;-44
2021/08/17 05:49:51;;;;;;;14.05;11.15;;;27.70;99.90;;;;;;5095987;28;20040;-44
2021/08/17 05:52:18;;;;;;;17.27;11.57;;;27.70;99.90;;;;;;5095855;28;20567;-44
2021/08/17 05:54:46;;;;;;;13.55;11.15;;;27.80;99.90;;;;;;5093437;28;20055;-44
2021/08/17 05:57:14;;;;;;;19.02;10.20;;;27.90;99.90;;;;;;5077467;28;20135;-44
2021/08/17 05:59:41;;;;;;;14.45;10.98;;;28.10;99.90;;;;;;5094420;28;20050;-45
2021/08/17 06:02:09;;;;;;;15.68;9.43;;;28.30;99.90;;;;;;5077806;28;20048;-45
2021/08/17 06:04:37;;;;;;;12.52;10.13;;;28.40;99.90;;;;;;5094269;28;20055;-44
2021/08/17 06:07:04;;;;;;;15.88;9.80;;;28.50;99.90;;;;;;5095665;28;20084;-45
2021/08/17 06:09:32;;;;;;;10.90;8.50;;;28.60;99.90;;;;;;5094752;28;20398;-44
2021/08/17 06:12:01;;;;;;;14.23;9.10;;;28.60;99.90;;;;;;5093771;28;20094;-44
2021/08/17 06:14:28;;;;;;;14.15;9.00;;;28.70;99.90;;;;;;5060344;28;20350;-45
2021/08/17 06:16:56;;;;;;;14.68;7.80;;;28.80;99.90;;;;;;5094185;28;20474;-45
2021/08/17 06:19:24;;;;;;;10.52;7.68;;;28.90;99.90;;;;;;5094173;28;20044;-44
2021/08/17 06:21:51;;;;;;;12.20;8.18;;;29.00;99.90;;;;;;5095258;28;20489;-45
2021/08/17 06:24:19;;;;;;;10.73;6.85;;;29.30;99.90;;;;;;5094077;28;20056;-45
2021/08/17 06:26:47;;;;;;;8.23;6.47;;;29.40;99.90;;;;;;5093158;28;20151;-45
2021/08/17 06:29:15;;;;;;;9.77;7.82;;;29.40;99.90;;;;;;5076787;28;20047;-44
2021/08/17 06:31:43;;;;;;;14.25;7.90;;;29.60;99.90;;;;;;5076733;28;20135;-44
2021/08/17 06:34:11;;;;;;;8.63;6.85;;;29.70;99.70;;;;;;5093666;28;20044;-45
2021/08/17 06:36:40;;;;;;;11.13;7.18;;;29.90;98.10;;;;;;5093961;28;20393;-45
2021/08/17 06:39:09;;;;;;;7.75;6.47;;;29.90;97.70;;;;;;5077213;28;20051;-45
2021/08/17 06:41:36;;;;;;;10.98;6.93;;;29.90;97.70;;;;;;5092643;28;20047;-45
2021/08/17 06:44:04;;;;;;;9.43;6.82;;;30.00;96.90;;;;;;5075858;28;20047;-48
2021/08/17 06:46:32;;;;;;;10.02;6.53;;;30.00;96.00;;;;;;5093649;28;20382;-44
2021/08/17 06:49:00;;;;;;;10.20;7.28;;;30.20;95.80;;;;;;5093464;28;20036;-45
2021/08/17 06:51:27;;;;;;;9.95;7.05;;;30.30;95.30;;;;;;5094840;28;20054;-45
2021/08/17 06:53:55;;;;;;;9.95;7.00;;;30.40;95.50;;;;;;5094983;28;20510;-45
2021/08/17 06:56:22;;;;;;;9.68;8.35;;;30.60;94.80;;;;;;5092144;28;20403;-46
2021/08/17 06:58:50;;;;;;;12.82;7.65;;;30.70;94.50;;;;;;5092402;28;20052;-45
2021/08/17 07:01:18;;;;;;;9.32;7.50;;;30.70;94.10;;;;;;5092906;28;20044;-45
2021/08/17 07:03:46;;;;;;;7.93;6.97;;;30.70;94.10;;;;;;5092948;28;20039;-46
2021/08/17 07:06:13;;;;;;;12.60;7.18;;;30.80;94.10;;;;;;5093838;28;20044;-45
2021/08/17 07:08:41;;;;;;;10.75;6.85;;;31.00;93.90;;;;;;5092581;28;20062;-45
2021/08/17 07:11:09;;;;;;;7.35;6.50;;;30.80;93.20;;;;;;5092587;28;20048;-46
2021/08/17 07:13:37;;;;;;;9.10;6.70;;;31.00;93.00;;;;;;5091200;28;20056;-51
2021/08/17 07:16:05;;;;;;;7.60;5.90;;;31.00;93.10;;;;;;5091785;28;20043;-46
2021/08/17 07:18:34;;;;;;;12.27;6.63;;;31.00;93.00;;;;;;5076000;28;20138;-45
2021/08/17 07:21:03;;;;;;;8.43;6.10;;;30.90;93.10;;;;;;5076447;28;20427;-45
2021/08/17 07:23:30;;;;;;;12.55;8.05;;;31.00;92.80;;;;;;5093301;28;20123;-45
2021/08/17 07:25:58;;;;;;;10.23;7.03;;;31.20;93.00;;;;;;5076215;28;20044;-45
2021/08/17 07:28:26;;;;;;;9.07;6.43;;;31.30;92.80;;;;;;5074883;28;20079;-45
2021/08/17 07:30:54;;;;;;;9.68;6.53;;;31.70;91.50;;;;;;5092190;28;20097;-45
2021/08/17 07:33:22;;;;;;;8.35;6.28;;;31.90;90.90;;;;;;5092767;28;20047;-45
2021/08/17 07:35:49;;;;;;;8.77;6.10;;;32.10;90.70;;;;;;5093842;28;20039;-45
2021/08/17 07:38:17;;;;;;;11.40;6.50;;;32.30;90.20;;;;;;5093839;28;20052;-45
2021/08/17 07:40:45;;;;;;;9.48;6.10;;;32.30;89.50;;;;;;5093751;28;20055;-45
2021/08/17 07:43:13;;;;;;;9.85;5.57;;;32.40;89.60;;;;;;5075307;28;20055;-46
2021/08/17 07:45:41;;;;;;;8.20;6.10;;;32.60;89.50;;;;;;5091941;28;20036;-45
2021/08/17 07:48:30;;;;;;;8.70;5.97;;;32.80;88.30;;;;;;5078567;28;20052;-46
2021/08/17 07:50:58;;;;;;;7.25;5.75;;;33.10;87.40;;;;;;5092564;28;20506;-45
2021/08/17 07:53:26;;;;;;;9.55;6.32;;;33.30;84.80;;;;;;5092403;28;20070;-45
2021/08/17 07:55:54;;;;;;;9.25;5.55;;;33.30;83.50;;;;;;5092302;28;20056;-45
2021/08/17 07:58:22;;;;;;;6.55;5.53;;;33.40;83.20;;;;;;5092373;28;20468;-46
2021/08/17 08:00:49;;;;;;;7.75;5.55;;;33.60;82.30;;;;;;5091337;28;20127;-45
2021/08/17 08:03:17;;;;;;;7.95;5.57;;;33.70;81.50;;;;;;5091917;28;20072;-45
2021/08/17 08:05:46;;;;;;;9.82;5.28;;;33.70;81.00;;;;;;5075714;28;20050;-45
2021/08/17 08:08:14;;;;;;;13.38;5.85;;;33.60;79.70;;;;;;5093234;28;20416;-45
2021/08/17 08:10:41;;;;;;;8.45;5.90;;;33.60;80.10;;;;;;5092414;28;20048;-48
2021/08/17 08:13:09;;;;;;;7.05;5.28;;;33.60;79.40;;;;;;5058888;28;20147;-45
2021/08/17 08:15:37;;;;;;;8.95;5.78;;;33.70;79.80;;;;;;5091082;28;20044;-45
2021/08/17 08:18:06;;;;;;;6.53;5.45;;;33.70;79.30;;;;;;5074691;28;20118;-46
2021/08/17 08:20:34;;;;;;;8.13;5.50;;;33.70;77.30;;;;;;5075281;28;20520;-45
2021/08/17 08:23:05;;;;;;;9.38;5.45;;;33.80;76.30;;;;;;5092243;28;20040;-45
2021/08/17 08:25:33;;;;;;;9.35;5.38;;;33.80;73.20;;;;;;5075709;28;20055;-45
2021/08/17 08:28:01;;;;;;;8.77;5.13;;;33.90;73.10;;;;;;5092205;28;20050;-45
2021/08/17 08:30:29;;;;;;;7.20;5.72;;;34.00;72.70;;;;;;5091292;28;20051;-47
2021/08/17 08:32:56;;;;;;;6.72;6.03;;;34.10;72.50;;;;;;5057720;28;20097;-45
2021/08/17 08:35:24;;;;;;;11.05;5.75;;;34.00;72.60;;;;;;5091845;28;20050;-45
2021/08/17 08:37:52;;;;;;;7.45;4.80;;;34.20;72.10;;;;;;5093324;28;20478;-45
2021/08/17 08:40:22;;;;;;;7.63;5.22;;;34.20;71.90;;;;;;5075483;28;20040;-45
2021/08/17 08:42:51;;;;;;;8.27;5.38;;;34.20;71.40;;;;;;5075174;28;20501;-46
2021/08/17 08:45:20;;;;;;;7.00;5.22;;;34.30;69.90;;;;;;5075317;28;20481;-45
2021/08/17 08:47:48;;;;;;;9.70;5.03;;;34.30;70.10;;;;;;5074218;28;20063;-45
2021/08/17 08:50:16;;;;;;;10.05;5.05;;;34.40;68.60;;;;;;5091592;28;20055;-45
2021/08/17 08:52:44;;;;;;;6.47;4.70;;;34.20;66.40;;;;;;5075072;28;20036;-45
2021/08/17 08:55:12;;;;;;;6.50;4.82;;;34.20;66.40;;;;;;5075120;28;20040;-45
2021/08/17 08:57:40;;;;;;;8.40;5.40;;;34.40;67.40;;;;;;5075126;28;20071;-46
2021/08/17 09:00:10;;;;;;;7.55;4.95;;;34.40;66.10;;;;;;5075127;28;20136;-45
2021/08/17 09:02:39;;;;;;;10.55;5.57;;;34.50;65.60;;;;;;5091834;28;20482;-46
2021/08/17 09:05:07;;;;;;;7.28;4.88;;;34.60;66.30;;;;;;5074579;28;20044;-46
2021/08/17 09:07:39;;;;;;;9.63;5.53;;;34.60;65.50;;;;;;5091912;28;20047;-45
2021/08/17 09:10:09;;;;;;;7.72;4.80;;;34.80;66.00;;;;;;5075157;28;20055;-45
2021/08/17 09:12:39;;;;;;;10.02;5.25;;;34.90;65.60;;;;;;5058084;28;20509;-45
2021/08/17 09:15:16;;;;;;;9.00;4.82;;;35.10;64.90;;;;;;5058584;28;20135;-46
2021/08/17 09:18:00;;;;;;;8.68;4.72;;;35.10;63.80;;;;;;5091968;28;20048;-45
2021/08/17 09:20:33;;;;;;;6.97;4.90;;;35.00;63.20;;;;;;5092126;28;20105;-46
2021/08/17 09:23:23;;;;;;;11.75;5.30;;;35.00;62.60;;;;;;5094985;28;20075;-45
2021/08/17 09:25:54;;;;;;;8.60;5.75;;;34.80;62.40;;;;;;5062155;28;20071;-46
2021/08/17 09:28:31;;;;;;;9.35;5.03;;;34.90;62.00;;;;;;5095145;28;20044;-45
2021/08/17 09:31:01;;;;;;;7.10;4.70;;;35.10;61.70;;;;;;5078479;28;20405;-45
2021/08/17 09:33:40;;;;;;;7.80;4.85;;;35.30;61.50;;;;;;5094486;28;20044;-45
2021/08/17 09:36:09;;;;;;;6.00;4.40;;;35.60;61.10;;;;;;5094487;28;20044;-45
2021/08/17 09:38:37;;;;;;;7.47;4.40;;;35.60;60.20;;;;;;5094822;28;20047;-45
2021/08/17 09:41:24;;;;;;;7.03;4.28;;;35.80;60.40;;;;;;5094928;28;20044;-46
2021/08/17 09:43:57;;;;;;;5.97;4.03;;;35.60;58.70;;;;;;5094775;28;20044;-47
2021/08/17 09:46:27;;;;;;;6.50;4.90;;;35.80;59.70;;;;;;5095070;28;20126;-45
2021/08/17 09:48:58;;;;;;;7.00;4.82;;;36.00;60.40;;;;;;5060790;28;20044;-46
2021/08/17 09:51:33;;;;;;;8.85;5.20;;;35.90;60.90;;;;;;5095435;28;20048;-45
2021/08/17 09:54:16;;;;;;;8.25;4.85;;;36.10;60.80;;;;;;5094444;28;20071;-45
2021/08/17 09:56:56;;;;;;;8.60;4.53;;;36.10;59.50;;;;;;5095823;28;20040;-45
2021/08/17 09:59:26;;;;;;;7.90;4.45;;;36.10;59.40;;;;;;5061463;28;20354;-45
2021/08/17 10:01:55;;;;;;;6.07;4.18;;;36.20;59.70;;;;;;5077969;28;20070;-46
2021/08/17 10:04:24;;;;;;;13.13;5.07;;;36.40;59.70;;;;;;5093929;28;20036;-46
2021/08/17 10:06:57;;;;;;;8.48;5.03;;;36.10;59.40;;;;;;5093752;28;20396;-45
2021/08/17 10:09:27;;;;;;;9.40;5.30;;;35.90;59.60;;;;;;5060867;28;20044;-46
2021/08/17 10:11:57;;;;;;;7.43;4.88;;;36.00;60.50;;;;;;5077460;28;20040;-46
2021/08/17 10:14:25;;;;;;;8.38;4.93;;;35.90;59.80;;;;;;5077332;28;20052;-45
2021/08/17 10:16:54;;;;;;;7.40;4.30;;;36.00;60.60;;;;;;5094234;28;20071;-45
2021/08/17 10:19:28;;;;;;;7.82;5.57;;;36.10;60.20;;;;;;5094026;28;20176;-45
2021/08/17 10:21:59;;;;;;;8.32;5.50;;;36.20;59.60;;;;;;5094664;28;20131;-45
2021/08/17 10:24:37;;;;;;;8.65;4.53;;;36.20;59.00;;;;;;5094956;28;20044;-45
2021/08/17 10:27:23;;;;;;;6.07;4.35;;;35.80;59.60;;;;;;5093927;28;20040;-45
2021/08/17 10:29:57;;;;;;;7.57;5.00;;;35.80;60.00;;;;;;5077008;28;20044;-45
2021/08/17 10:32:41;;;;;;;9.85;4.82;;;35.80;60.40;;;;;;5077012;28;20402;-45
2021/08/17 10:35:32;;;;;;;6.53;4.30;;;36.00;59.40;;;;;;5093541;28;20524;-46
2021/08/17 10:38:09;;;;;;;6.50;4.70;;;35.70;59.20;;;;;;5092805;28;20121;-45
2021/08/17 10:40:51;;;;;;;10.07;5.43;;;35.60;72.00;;;;;;5076829;28;20044;-46
2021/08/17 10:43:45;;;;;;;8.00;5.07;;;35.00;75.70;;;;;;5076765;28;20044;-45
2021/08/17 10:46:13;;;;;;;9.98;5.32;;;35.20;65.10;;;;;;5093881;28;20044;-48
2021/08/17 10:48:50;;;;;;;9.20;5.43;;;35.10;69.30;;;;;;5076795;28;20040;-46
2021/08/17 10:51:17;;;;;;;8.35;6.07;;;34.80;77.60;;;;;;5093007;28;20123;-46
2021/08/17 10:54:15;;;;;;;8.80;5.10;;;34.80;78.30;;;;;;5092725;28;20541;-46
2021/08/17 10:56:47;;;;;;;9.10;6.55;;;34.80;77.60;;;;;;5092045;28;20059;-48
2021/08/17 10:59:41;;;;;;;7.50;5.45;;;34.90;79.40;;;;;;5094650;28;20131;-46
2021/08/17 11:02:10;;;;;;;6.10;5.50;;;34.70;79.90;;;;;;5093549;28;20082;-45
2021/08/17 11:04:43;;;;;;;8.88;5.60;;;34.60;80.60;;;;;;5093602;28;20059;-45
2021/08/17 11:07:32;;;;;;;6.53;5.05;;;34.70;80.40;;;;;;5093749;28;20125;-45
2021/08/17 11:10:03;;;;;;;8.98;5.55;;;34.60;78.70;;;;;;5093800;28;20382;-46
2021/08/17 11:12:36;;;;;;;9.18;6.38;;;34.50;81.30;;;;;;5094083;28;20133;-45
2021/08/17 11:15:08;;;;;;;9.13;5.30;;;34.50;81.60;;;;;;5092826;28;20044;-46
2021/08/17 11:17:35;;;;;;;8.80;6.13;;;34.30;82.50;;;;;;5093074;28;20048;-46
2021/08/17 11:20:05;;;;;;;6.63;5.72;;;34.00;84.00;;;;;;5093196;28;20062;-46
2021/08/17 11:22:36;;;;;;;12.98;5.93;;;34.00;84.90;;;;;;5093708;28;20051;-46
2021/08/17 11:25:07;;;;;;;6.85;5.63;;;34.00;85.20;;;;;;5092284;28;20131;-48
2021/08/17 11:27:41;;;;;;;8.73;5.07;;;34.00;84.10;;;;;;5093857;28;20075;-47
2021/08/17 11:30:14;;;;;;;10.52;6.40;;;34.00;83.40;;;;;;5093782;28;20086;-46
2021/08/17 11:32:46;;;;;;;8.68;5.72;;;34.00;83.40;;;;;;5092980;28;20040;-46
2021/08/17 11:35:16;;;;;;;8.73;6.18;;;33.90;84.70;;;;;;5094238;28;20071;-46
2021/08/17 11:37:50;;;;;;;9.20;6.55;;;33.90;85.70;;;;;;5092718;28;20497;-46
2021/08/17 11:40:22;;;;;;;9.90;5.15;;;33.80;86.10;;;;;;5093203;28;20044;-48
2021/08/17 11:42:56;;;;;;;10.30;5.57;;;33.80;85.60;;;;;;5092959;28;20105;-46
2021/08/17 11:45:28;;;;;;;7.68;5.90;;;33.80;85.30;;;;;;5092643;28;20199;-46
2021/08/17 11:47:57;;;;;;;7.65;5.47;;;33.80;84.10;;;;;;5093908;28;20044;-46
2021/08/17 11:50:25;;;;;;;9.55;5.20;;;33.70;86.10;;;;;;5092491;28;20048;-46
2021/08/17 11:52:55;;;;;;;7.55;5.65;;;33.70;86.80;;;;;;5092616;28;20064;-49
2021/08/17 11:55:28;;;;;;;9.18;5.25;;;33.60;85.80;;;;;;5091166;28;20075;-47
2021/08/17 11:58:20;;;;;;;7.50;5.18;;;33.60;84.80;;;;;;5093293;28;20032;-46
2021/08/17 12:00:48;;;;;;;6.95;5.25;;;33.70;85.20;;;;;;5093482;28;20520;-46
2021/08/17 12:03:15;;;;;;;8.77;5.45;;;33.60;84.20;;;;;;5092374;28;20040;-45
2021/08/17 12:05:43;;;;;;;10.70;5.93;;;33.70;83.40;;;;;;5093496;28;20040;-46
2021/08/17 12:08:13;;;;;;;8.75;5.88;;;33.80;83.80;;;;;;5092624;28;20130;-47
2021/08/17 12:10:43;;;;;;;9.80;5.57;;;33.90;85.10;;;;;;5091490;28;20112;-46
2021/08/17 12:13:13;;;;;;;8.98;6.25;;;33.70;83.90;;;;;;5091631;28;20052;-46
2021/08/17 12:15:57;;;;;;;7.13;5.20;;;33.60;84.60;;;;;;5075317;28;20040;-46
2021/08/17 12:18:31;;;;;;;7.90;5.20;;;33.50;83.10;;;;;;5093435;28;20436;-46
2021/08/17 12:21:10;;;;;;;8.10;5.30;;;33.50;85.40;;;;;;5092441;28;20131;-46
2021/08/17 12:23:43;;;;;;;7.40;5.45;;;33.60;83.80;;;;;;5075937;28;20036;-47
2021/08/17 12:26:18;;;;;;;8.75;4.97;;;33.60;81.60;;;;;;5091099;28;20048;-46
2021/08/17 12:28:48;;;;;;;8.55;4.80;;;33.60;81.60;;;;;;5091713;28;20044;-45
2021/08/17 12:31:16;;;;;;;8.98;5.15;;;33.70;83.50;;;;;;5092080;28;20048;-50
2021/08/17 12:33:53;;;;;;;7.45;4.72;;;33.70;84.40;;;;;;5091983;28;20101;-47
2021/08/17 12:36:49;;;;;;;7.82;5.20;;;33.60;83.50;;;;;;5093186;28;20178;-49
2021/08/17 12:39:25;;;;;;;11.88;5.38;;;33.70;82.60;;;;;;5080114;28;20067;-48
2021/08/17 12:41:56;;;;;;;9.98;5.40;;;33.70;84.30;;;;;;5091293;28;20484;-50
2021/08/17 12:44:36;;;;;;;8.20;5.30;;;33.60;85.50;;;;;;5074715;28;20062;-49
2021/08/17 12:47:18;;;;;;;8.32;4.60;;;33.70;84.50;;;;;;5092914;28;20039;-53
2021/08/17 12:50:04;;;;;;;5.63;4.00;;;33.60;84.80;;;;;;5092028;28;20420;-49